Terminal Aerodrome Forecast
Issued by NWS

Home | Current Version | Previous Version | Text Only | Print | Product List | Glossary On
Versions: 1 2 3 4 5 6 7 8 9 10 11 12 13 14 15 16 17 18 19 20 21 22 23 24 25 26 27 28 29 30 31 32 33 34 35 36 37 38 39 40 41 42 43 44
000
FTUS45 KBOU 281120
TAFBJC
TAF
KBJC 281120Z 2812/2912 VRB05KT P6SM SCT120
     FM281600 33008KT P6SM SCT090 BKN150
     FM282000 33015KT P6SM VCTS SCT070CB BKN120
      TEMPO 2820/2824 VRB15G30KT 5SM -TSRA BKN060CB
     FM290100 30010KT P6SM SCT080 BKN150
     FM290300 24007KT P6SM SCT150=

USA.gov is the U.S. government's official web portal to all federal, state and local government web resources and services.